Time;durP1;ratioP1;P1;durP2;ratioP2;P2;SDS_P1;SDS_P2;PMS_P1;PMS_P2;Temp;Humidity;BMP_temperature;BMP_pressure;BME280_temperature;BME280_humidity;BME280_pressure;Samples;Min_cycle;Max_cycle;Signal;HPM_P1;HPM_P2
2022/10/13 00:02:09;;;;;;;18.08;13.32;;;9.10;99.90;;;;;;5091994;28;20197;-87
2022/10/13 00:04:36;;;;;;;17.73;12.90;;;9.10;99.90;;;;;;5104285;28;20310;-86
2022/10/13 00:07:04;;;;;;;18.17;12.77;;;9.20;99.90;;;;;;5099047;28;20235;-86
2022/10/13 00:09:31;;;;;;;17.42;12.73;;;9.20;99.90;;;;;;5096072;28;20207;-86
2022/10/13 00:11:58;;;;;;;16.48;13.45;;;9.20;99.90;;;;;;5097172;28;20220;-86
2022/10/13 00:14:25;;;;;;;15.85;12.77;;;9.30;99.90;;;;;;5100707;28;20267;-85
2022/10/13 00:16:52;;;;;;;16.02;12.43;;;9.20;99.90;;;;;;5108158;28;20240;-85
2022/10/13 00:19:19;;;;;;;16.48;12.95;;;9.20;99.90;;;;;;5088548;28;20204;-87
2022/10/13 00:21:46;;;;;;;15.40;11.93;;;9.20;99.90;;;;;;5087610;28;20547;-87
2022/10/13 00:24:14;;;;;;;19.85;13.15;;;9.10;99.90;;;;;;5096075;28;20214;-86
2022/10/13 00:26:41;;;;;;;17.17;12.32;;;9.10;99.90;;;;;;5092629;28;20215;-88
2022/10/13 00:29:08;;;;;;;16.27;12.43;;;9.00;99.90;;;;;;5091291;28;20212;-87
2022/10/13 00:31:34;;;;;;;18.85;13.02;;;9.00;99.90;;;;;;5080720;28;20185;-86
2022/10/13 00:34:02;;;;;;;16.70;12.25;;;8.90;99.90;;;;;;5090878;28;20817;-87
2022/10/13 00:36:29;;;;;;;16.00;12.95;;;8.90;99.90;;;;;;5093536;28;20656;-86
2022/10/13 00:38:56;;;;;;;14.93;12.40;;;8.90;99.90;;;;;;5091112;28;20193;-85
2022/10/13 00:41:25;;;;;;;17.58;12.73;;;8.90;99.90;;;;;;5090456;28;20287;-86
2022/10/13 00:44:05;;;;;;;17.35;12.85;;;8.90;99.90;;;;;;5095218;28;20208;-87
2022/10/13 00:46:33;;;;;;;14.25;11.65;;;8.90;99.90;;;;;;5080614;28;20600;-87
2022/10/13 00:49:04;;;;;;;16.02;12.55;;;8.80;99.90;;;;;;5091014;28;20211;-86
2022/10/13 00:51:34;;;;;;;15.57;12.45;;;8.80;99.90;;;;;;5091435;28;20674;-86
2022/10/13 00:54:03;;;;;;;15.38;12.73;;;8.80;99.90;;;;;;5082299;28;20200;-86
2022/10/13 00:56:32;;;;;;;16.60;12.15;;;8.80;99.90;;;;;;5090636;28;20211;-86
2022/10/13 00:59:00;;;;;;;17.52;12.88;;;8.90;99.90;;;;;;5092469;28;20201;-87
2022/10/13 01:01:27;;;;;;;19.48;12.57;;;8.80;99.90;;;;;;5079466;28;20198;-86
2022/10/13 01:03:54;;;;;;;18.10;12.65;;;8.70;99.90;;;;;;5090436;28;20680;-87
2022/10/13 01:06:20;;;;;;;13.90;11.85;;;8.70;99.90;;;;;;5096403;28;20238;-86
2022/10/13 01:08:47;;;;;;;17.88;13.57;;;8.70;99.90;;;;;;5096330;28;20272;-86
2022/10/13 01:11:30;;;;;;;16.05;13.10;;;8.70;99.90;;;;;;5092940;28;20296;-86
2022/10/13 01:14:08;;;;;;;18.25;13.00;;;8.70;99.90;;;;;;5096366;28;20189;-86
2022/10/13 01:16:40;;;;;;;16.95;13.15;;;8.60;99.90;;;;;;5096349;28;20208;-88
2022/10/13 01:19:30;;;;;;;17.58;13.85;;;8.60;99.90;;;;;;5087129;28;20215;-86
2022/10/13 01:22:08;;;;;;;16.92;13.63;;;8.60;99.90;;;;;;5084981;28;20579;-86
2022/10/13 01:24:44;;;;;;;18.15;12.80;;;8.60;99.90;;;;;;5093235;28;20221;-87
2022/10/13 01:27:46;;;;;;;18.13;13.73;;;8.60;99.90;;;;;;5089541;28;20226;-88
2022/10/13 01:30:16;;;;;;;17.45;12.75;;;8.60;99.90;;;;;;5026395;28;20282;-87
2022/10/13 01:33:25;;;;;;;16.30;12.48;;;8.60;99.90;;;;;;5023678;28;20203;-87
2022/10/13 01:36:02;;;;;;;18.58;13.02;;;8.60;99.90;;;;;;4966574;28;20332;-86
2022/10/13 01:38:35;;;;;;;15.93;12.20;;;8.60;99.90;;;;;;4960990;28;20215;-87
2022/10/13 01:41:09;;;;;;;18.50;12.85;;;8.60;99.90;;;;;;4972863;28;20208;-86
2022/10/13 01:43:40;;;;;;;17.23;12.38;;;8.60;99.90;;;;;;4966493;28;20221;-86
2022/10/13 01:46:13;;;;;;;18.67;12.68;;;8.70;99.90;;;;;;4965497;28;20226;-87
2022/10/13 01:48:42;;;;;;;16.77;12.65;;;8.60;99.90;;;;;;4972651;28;20201;-86
2022/10/13 01:51:13;;;;;;;16.30;12.55;;;8.60;99.90;;;;;;4972399;28;20296;-86
2022/10/13 01:53:47;;;;;;;16.85;11.60;;;8.60;99.90;;;;;;4968683;28;20211;-86
2022/10/13 01:56:15;;;;;;;18.55;12.82;;;8.60;99.90;;;;;;4974327;28;20287;-87
2022/10/13 01:58:48;;;;;;;17.95;12.25;;;8.70;99.90;;;;;;4967010;28;20220;-86
2022/10/13 02:01:27;;;;;;;16.95;12.13;;;8.70;99.90;;;;;;4986280;28;20596;-86
2022/10/13 02:04:02;;;;;;;19.98;12.88;;;8.60;99.90;;;;;;4966358;28;20218;-87
2022/10/13 02:06:32;;;;;;;19.77;12.38;;;8.60;99.90;;;;;;4987302;28;20241;-86
2022/10/13 02:09:08;;;;;;;16.80;11.32;;;8.50;99.90;;;;;;5040351;28;20198;-85
2022/10/13 02:11:52;;;;;;;16.65;12.00;;;8.50;99.90;;;;;;5065732;28;20640;-87
2022/10/13 02:14:26;;;;;;;15.93;11.38;;;8.40;99.90;;;;;;5094062;28;20188;-86
2022/10/13 02:17:06;;;;;;;15.07;12.20;;;8.60;99.90;;;;;;5087104;28;20210;-86
2022/10/13 02:23:09;;;;;;;16.30;11.13;;;8.50;99.90;;;;;;5095340;28;20216;-87
2022/10/13 02:25:47;;;;;;;17.00;11.85;;;8.50;99.90;;;;;;5095240;28;20189;-86
2022/10/13 02:28:15;;;;;;;16.02;12.23;;;8.50;99.90;;;;;;5087288;28;20223;-86
2022/10/13 02:30:46;;;;;;;16.52;11.95;;;8.40;99.90;;;;;;5085874;28;20200;-87
2022/10/13 02:33:15;;;;;;;16.33;12.20;;;8.40;99.90;;;;;;5088569;28;20197;-87
2022/10/13 02:35:42;;;;;;;14.68;11.52;;;8.30;99.90;;;;;;5092438;28;20200;-87
2022/10/13 02:38:09;;;;;;;18.60;11.07;;;8.40;99.90;;;;;;5086910;28;20287;-86
2022/10/13 02:40:36;;;;;;;19.05;11.93;;;8.40;99.90;;;;;;5099702;28;20188;-89
2022/10/13 02:43:04;;;;;;;15.02;11.50;;;8.40;99.90;;;;;;5084399;28;20236;-85
2022/10/13 02:45:31;;;;;;;15.20;11.13;;;8.30;99.90;;;;;;5098451;28;20202;-87
2022/10/13 02:47:58;;;;;;;15.07;11.02;;;8.30;99.90;;;;;;5097651;28;20213;-86
2022/10/13 02:50:26;;;;;;;22.20;11.93;;;8.30;99.90;;;;;;5092197;28;20291;-88
2022/10/13 02:52:57;;;;;;;15.35;10.82;;;8.30;99.90;;;;;;5092473;28;20207;-85
2022/10/13 02:55:28;;;;;;;15.98;10.45;;;8.30;99.90;;;;;;5093931;28;20206;-86
2022/10/13 02:57:55;;;;;;;14.60;11.15;;;8.40;99.90;;;;;;5088767;28;20624;-85
2022/10/13 03:00:22;;;;;;;15.95;10.80;;;8.40;99.90;;;;;;5085380;28;20201;-86
2022/10/13 03:02:49;;;;;;;13.95;10.65;;;8.30;99.90;;;;;;5089557;28;20659;-85
2022/10/13 03:05:16;;;;;;;18.70;11.25;;;8.40;99.90;;;;;;5098751;28;20743;-85
2022/10/13 03:07:44;;;;;;;15.80;10.90;;;8.30;99.90;;;;;;5098426;28;20239;-85
2022/10/13 03:10:11;;;;;;;14.02;10.55;;;8.30;99.90;;;;;;5092638;28;20186;-86
2022/10/13 03:12:38;;;;;;;16.00;10.05;;;8.20;99.90;;;;;;5084622;28;20197;-85
2022/10/13 03:15:06;;;;;;;14.27;10.52;;;8.20;99.90;;;;;;5093950;28;20188;-86
2022/10/13 03:17:33;;;;;;;16.60;10.57;;;8.20;99.90;;;;;;5093889;28;20294;-87
2022/10/13 03:20:00;;;;;;;20.23;10.95;;;8.20;99.90;;;;;;5086726;28;20204;-86
2022/10/13 03:22:27;;;;;;;16.55;10.52;;;8.20;99.90;;;;;;5088773;28;20193;-86
2022/10/13 03:24:55;;;;;;;18.05;12.13;;;8.10;99.90;;;;;;5093200;28;20205;-87
2022/10/13 03:27:22;;;;;;;17.38;12.55;;;8.10;99.90;;;;;;5091412;28;20758;-86
2022/10/13 03:29:49;;;;;;;14.68;11.30;;;8.10;99.90;;;;;;5093202;28;20211;-86
2022/10/13 03:32:16;;;;;;;17.70;12.85;;;8.20;99.90;;;;;;5091150;28;20196;-86
2022/10/13 03:34:43;;;;;;;13.27;10.98;;;8.30;99.90;;;;;;5092634;28;20203;-87
2022/10/13 03:37:10;;;;;;;15.52;10.30;;;8.30;99.90;;;;;;5086460;28;20287;-86
2022/10/13 03:39:37;;;;;;;13.48;10.40;;;8.10;99.90;;;;;;5092945;28;20253;-86
2022/10/13 03:42:06;;;;;;;16.08;10.55;;;8.20;99.90;;;;;;5087409;28;20223;-86
2022/10/13 03:44:33;;;;;;;14.75;9.93;;;8.10;99.90;;;;;;5086320;28;20441;-87
2022/10/13 03:47:09;;;;;;;16.55;10.52;;;8.00;99.90;;;;;;5096170;28;20224;-86
2022/10/13 03:49:37;;;;;;;13.98;9.85;;;7.90;99.90;;;;;;5092083;28;20196;-86
2022/10/13 03:52:05;;;;;;;13.80;10.05;;;7.90;99.90;;;;;;5087374;28;20647;-87
2022/10/13 03:54:34;;;;;;;14.85;10.13;;;7.90;99.90;;;;;;5083865;28;20188;-86
2022/10/13 03:57:00;;;;;;;14.20;9.98;;;7.90;99.90;;;;;;5089534;28;20196;-87
2022/10/13 03:59:30;;;;;;;13.13;10.43;;;7.90;99.90;;;;;;5090329;28;20310;-86
2022/10/13 04:02:04;;;;;;;18.13;9.77;;;7.80;99.90;;;;;;5097040;28;20223;-86
2022/10/13 04:04:30;;;;;;;13.77;9.90;;;7.80;99.90;;;;;;5093428;28;20220;-86
2022/10/13 04:06:57;;;;;;;19.67;10.00;;;7.90;99.90;;;;;;5090380;28;20200;-86
2022/10/13 04:09:24;;;;;;;13.57;9.55;;;7.80;99.90;;;;;;5088287;28;20287;-86
2022/10/13 04:11:51;;;;;;;13.38;9.80;;;7.90;99.90;;;;;;5089328;28;20204;-88
2022/10/13 04:14:19;;;;;;;15.15;9.38;;;7.90;99.90;;;;;;5092813;28;20246;-88
2022/10/13 04:16:47;;;;;;;14.05;10.02;;;8.10;99.90;;;;;;5089218;28;20203;-87
2022/10/13 04:19:15;;;;;;;11.45;9.07;;;8.10;99.90;;;;;;5099729;28;20202;-86
2022/10/13 04:21:42;;;;;;;15.23;9.90;;;8.20;99.90;;;;;;5093608;28;20207;-86
2022/10/13 04:24:11;;;;;;;11.35;8.63;;;8.20;99.90;;;;;;5089679;28;20199;-86
2022/10/13 04:26:39;;;;;;;11.82;9.07;;;8.30;99.90;;;;;;5090481;28;20201;-86
2022/10/13 04:29:12;;;;;;;10.85;8.40;;;8.40;99.90;;;;;;5083657;28;20238;-86
2022/10/13 04:32:00;;;;;;;11.57;8.07;;;8.40;99.90;;;;;;5097786;28;20563;-86
2022/10/13 04:34:45;;;;;;;16.63;8.15;;;8.40;99.90;;;;;;5087585;28;20366;-87
2022/10/13 04:37:39;;;;;;;10.02;7.20;;;8.40;99.90;;;;;;5093063;28;20283;-86
2022/10/13 04:40:07;;;;;;;8.93;7.20;;;8.40;99.90;;;;;;5075806;28;20791;-87
2022/10/13 04:42:39;;;;;;;13.95;8.15;;;8.40;99.90;;;;;;5094830;28;20193;-85
2022/10/13 04:45:08;;;;;;;11.00;7.70;;;8.40;99.90;;;;;;5097027;28;20279;-85
2022/10/13 04:48:05;;;;;;;16.75;7.88;;;8.40;99.90;;;;;;5096829;28;20240;-85
2022/10/13 04:50:33;;;;;;;14.70;8.75;;;8.40;99.90;;;;;;5095441;28;20729;-85
2022/10/13 04:53:00;;;;;;;16.52;8.75;;;8.40;99.90;;;;;;5092732;28;20216;-86
2022/10/13 04:55:36;;;;;;;13.68;8.13;;;8.40;99.90;;;;;;5090562;28;20228;-86
2022/10/13 05:01:28;;;;;;;11.82;8.73;;;8.40;99.90;;;;;;5096309;28;20186;-85
2022/10/13 05:04:05;;;;;;;14.38;8.05;;;8.60;99.90;;;;;;5091745;28;20196;-86
2022/10/13 05:06:46;;;;;;;11.65;9.00;;;8.60;99.90;;;;;;5091849;28;20224;-85
2022/10/13 05:09:57;;;;;;;11.10;8.48;;;8.60;99.90;;;;;;5087946;28;20217;-86
2022/10/13 05:15:52;;;;;;;13.63;8.57;;;8.80;99.90;;;;;;5088471;28;20184;-86
2022/10/13 05:18:40;;;;;;;11.38;8.15;;;8.90;99.90;;;;;;5093865;28;20287;-85
2022/10/13 05:21:33;;;;;;;12.27;9.00;;;8.90;99.90;;;;;;5095993;28;20200;-86
2022/10/13 05:24:29;;;;;;;11.43;8.57;;;8.90;99.90;;;;;;5093456;28;20205;-85
2022/10/13 05:27:22;;;;;;;12.88;9.00;;;8.90;99.90;;;;;;5097298;28;20208;-86
2022/10/13 05:30:10;;;;;;;10.48;7.95;;;9.00;99.90;;;;;;5094987;28;20205;-85
2022/10/13 05:32:37;;;;;;;13.65;8.77;;;9.10;99.90;;;;;;5083745;28;20193;-86
2022/10/13 05:35:36;;;;;;;13.48;9.15;;;9.10;99.90;;;;;;5088983;28;20272;-85
2022/10/13 05:38:45;;;;;;;13.10;8.80;;;9.20;99.90;;;;;;5094419;28;20659;-84
2022/10/13 05:41:34;;;;;;;10.45;8.15;;;9.30;99.90;;;;;;5091013;28;20203;-85
2022/10/13 05:44:06;;;;;;;12.52;9.30;;;9.30;99.90;;;;;;5092386;28;20197;-86
2022/10/13 05:46:34;;;;;;;13.10;9.00;;;9.30;99.90;;;;;;5104120;28;20575;-85
2022/10/13 05:49:04;;;;;;;12.30;8.93;;;9.30;99.90;;;;;;5098951;28;20220;-85
2022/10/13 05:51:59;;;;;;;12.05;8.85;;;9.30;99.90;;;;;;5100237;28;20200;-86
2022/10/13 05:54:41;;;;;;;11.63;9.07;;;9.40;99.90;;;;;;5103359;28;20257;-86
2022/10/13 05:57:37;;;;;;;15.98;9.32;;;9.40;99.90;;;;;;5100876;28;20199;-86
2022/10/13 06:00:22;;;;;;;12.93;8.90;;;9.40;99.90;;;;;;5096956;28;20284;-86
2022/10/13 06:03:03;;;;;;;10.98;8.63;;;9.50;99.90;;;;;;5105934;28;20197;-86
2022/10/13 06:05:32;;;;;;;14.05;8.57;;;9.60;99.90;;;;;;5101239;28;20303;-84
2022/10/13 06:07:59;;;;;;;13.35;9.43;;;9.60;99.90;;;;;;5099097;28;20240;-85
2022/10/13 06:10:40;;;;;;;12.40;9.40;;;9.60;99.90;;;;;;5092350;28;20200;-85
2022/10/13 06:13:29;;;;;;;11.30;9.48;;;9.70;99.90;;;;;;5092455;28;20197;-85
2022/10/13 06:16:51;;;;;;;11.88;10.00;;;9.80;99.90;;;;;;5088924;28;20719;-86
2022/10/13 06:22:40;;;;;;;14.60;9.68;;;9.80;99.90;;;;;;5098413;28;20230;-86
2022/10/13 06:28:30;;;;;;;12.23;9.90;;;9.90;99.90;;;;;;5087052;28;20231;-85
2022/10/13 06:37:41;;;;;;;13.18;9.45;;;10.30;99.90;;;;;;5108446;28;20178;-85
2022/10/13 06:43:32;;;;;;;12.27;9.43;;;10.60;99.90;;;;;;5101908;28;20236;-85
2022/10/13 06:49:38;;;;;;;12.70;9.75;;;10.80;99.90;;;;;;5101634;28;20221;-85
2022/10/13 06:55:29;;;;;;;20.02;9.77;;;11.00;99.90;;;;;;5101475;28;20171;-85
2022/10/13 07:51:07;;;;;;;14.85;10.60;;;12.20;99.90;;;;;;5238119;22;20237;-85
2022/10/13 07:56:57;;;;;;;13.50;11.25;;;12.40;99.90;;;;;;5030117;28;20183;-85
2022/10/13 08:02:50;;;;;;;16.08;11.40;;;12.60;99.90;;;;;;5032832;28;20198;-85
2022/10/13 08:05:57;;;;;;;16.77;11.70;;;12.50;99.90;;;;;;5035617;28;20698;-85
2022/10/13 08:15:10;;;;;;;16.13;11.10;;;12.80;99.90;;;;;;5033895;28;20189;-85
2022/10/13 08:21:01;;;;;;;21.55;12.02;;;13.00;99.40;;;;;;5032169;28;20186;-85
2022/10/13 08:23:51;;;;;;;17.38;11.50;;;13.10;99.10;;;;;;5032136;28;20594;-85
2022/10/13 08:29:40;;;;;;;16.05;11.13;;;13.40;98.60;;;;;;5028355;28;20720;-85
2022/10/13 08:32:19;;;;;;;18.75;11.70;;;13.50;98.40;;;;;;5026531;28;20201;-85
2022/10/13 08:35:09;;;;;;;18.92;13.10;;;13.50;98.30;;;;;;5028900;28;20365;-85
2022/10/13 08:37:46;;;;;;;18.58;12.05;;;13.70;97.40;;;;;;5026138;28;20688;-86
2022/10/13 08:40:16;;;;;;;17.67;10.77;;;13.70;97.10;;;;;;5031164;28;20198;-85
2022/10/13 08:42:52;;;;;;;19.58;11.35;;;13.70;97.50;;;;;;5027511;28;20194;-85
2022/10/13 08:45:34;;;;;;;20.90;11.90;;;13.60;97.40;;;;;;5021183;28;20194;-85
2022/10/13 08:48:32;;;;;;;17.20;11.02;;;13.40;98.00;;;;;;5023055;28;20210;-85
2022/10/13 08:51:24;;;;;;;19.45;11.13;;;13.30;98.50;;;;;;5039785;28;20637;-85
2022/10/13 08:53:50;;;;;;;19.52;11.13;;;13.20;98.90;;;;;;5038358;28;20281;-84
2022/10/13 08:56:31;;;;;;;19.48;10.95;;;13.20;99.10;;;;;;5037055;28;20191;-84
2022/10/13 08:59:05;;;;;;;16.92;10.32;;;13.30;99.10;;;;;;5023097;28;20566;-87
2022/10/13 09:04:58;;;;;;;16.27;9.63;;;13.70;98.30;;;;;;5021452;28;20256;-85
2022/10/13 09:10:48;;;;;;;13.70;9.98;;;14.30;96.70;;;;;;5028188;28;20233;-85
2022/10/13 09:13:15;;;;;;;19.70;11.30;;;14.50;96.80;;;;;;5036173;28;20202;-86
2022/10/13 09:19:35;;;;;;;16.23;10.18;;;15.20;94.60;;;;;;5024390;28;20552;-86
2022/10/13 09:25:25;;;;;;;15.13;9.82;;;15.20;94.50;;;;;;5027661;28;20182;-86
2022/10/13 09:31:39;;;;;;;20.40;9.70;;;15.50;94.50;;;;;;5022428;28;20230;-84
2022/10/13 09:34:24;;;;;;;21.23;10.07;;;16.70;92.30;;;;;;5027737;28;20223;-84
2022/10/13 09:37:19;;;;;;;16.45;9.68;;;17.40;87.90;;;;;;5040632;28;20211;-84
2022/10/13 09:39:47;;;;;;;13.23;9.40;;;18.00;83.70;;;;;;5038358;28;20199;-82
2022/10/13 09:42:35;;;;;;;36.75;26.95;;;18.50;77.80;;;;;;5040518;28;20573;-82
2022/10/13 09:45:13;;;;;;;13.75;9.38;;;18.70;66.00;;;;;;5037926;28;20201;-82
2022/10/13 09:47:51;;;;;;;13.52;9.07;;;18.30;71.10;;;;;;5038930;28;20285;-83
2022/10/13 09:50:30;;;;;;;14.20;9.70;;;17.70;76.50;;;;;;5020554;28;20237;-82
2022/10/13 09:53:21;;;;;;;13.68;9.13;;;17.50;79.00;;;;;;5032877;28;20203;-81
2022/10/13 09:56:09;;;;;;;12.30;8.85;;;17.40;79.00;;;;;;5036410;28;20529;-82
2022/10/13 10:02:28;;;;;;;12.95;8.25;;;17.40;81.60;;;;;;5038927;28;20206;-84
2022/10/13 10:05:39;;;;;;;12.70;8.23;;;17.30;78.90;;;;;;5035241;28;20694;-84
2022/10/13 10:08:37;;;;;;;14.85;8.50;;;17.30;78.90;;;;;;5040969;28;20238;-83
2022/10/13 10:11:28;;;;;;;9.48;7.60;;;16.90;78.60;;;;;;5042033;28;20190;-84
2022/10/13 10:14:39;;;;;;;11.95;8.13;;;16.80;81.50;;;;;;5038686;28;20202;-84
2022/10/13 10:17:32;;;;;;;11.60;7.80;;;16.60;83.90;;;;;;5038967;28;20238;-84
2022/10/13 10:20:40;;;;;;;13.75;7.93;;;16.40;89.20;;;;;;5041395;28;20203;-84
2022/10/13 10:23:32;;;;;;;14.18;7.47;;;16.50;85.30;;;;;;5023863;28;20614;-85
2022/10/13 10:26:01;;;;;;;14.80;8.35;;;16.50;83.40;;;;;;5027353;28;20622;-84
2022/10/13 10:32:04;;;;;;;12.27;7.18;;;16.00;88.70;;;;;;5035705;28;20189;-87
2022/10/13 10:38:05;;;;;;;12.68;7.38;;;15.80;85.20;;;;;;5020008;28;20205;-87
2022/10/13 10:41:22;;;;;;;12.90;7.22;;;15.80;88.20;;;;;;5024938;28;20528;-87
2022/10/13 10:47:16;;;;;;;13.18;7.35;;;15.70;88.50;;;;;;5035485;28;20186;-87
2022/10/13 10:50:33;;;;;;;10.05;6.82;;;15.70;90.60;;;;;;5024043;28;20222;-86
2022/10/13 10:59:55;;;;;;;9.02;6.28;;;16.20;85.00;;;;;;5035236;28;20194;-87
2022/10/13 11:02:55;;;;;;;13.02;7.38;;;16.40;82.50;;;;;;5035642;28;20564;-87
2022/10/13 11:06:03;;;;;;;10.75;6.80;;;16.70;81.00;;;;;;5030743;28;20240;-87
2022/10/13 11:09:04;;;;;;;9.98;6.93;;;16.80;78.60;;;;;;5035691;28;20525;-84
2022/10/13 11:11:57;;;;;;;10.93;6.82;;;16.60;78.40;;;;;;5036847;28;20204;-84
2022/10/13 11:14:46;;;;;;;9.45;6.35;;;16.80;77.40;;;;;;5039869;28;20277;-84
2022/10/13 11:17:31;;;;;;;12.32;6.97;;;16.70;78.50;;;;;;5032808;28;20286;-84
2022/10/13 11:19:59;;;;;;;9.70;6.78;;;16.80;74.80;;;;;;5036950;28;20199;-84
2022/10/13 11:22:28;;;;;;;9.60;6.47;;;16.60;78.50;;;;;;5040149;28;20222;-85
2022/10/13 11:29:03;;;;;;;13.52;6.80;;;16.80;76.00;;;;;;5032956;28;20197;-85
2022/10/13 11:31:49;;;;;;;11.57;6.72;;;16.90;78.40;;;;;;5028952;28;20218;-85
2022/10/13 11:34:32;;;;;;;9.88;6.90;;;17.00;77.90;;;;;;5020097;28;20202;-85
2022/10/13 11:37:16;;;;;;;13.30;7.05;;;17.10;73.00;;;;;;5037078;28;20199;-84
2022/10/13 11:40:15;;;;;;;11.52;6.78;;;17.10;75.30;;;;;;5034308;28;20199;-84
2022/10/13 11:43:16;;;;;;;9.57;6.90;;;17.00;76.80;;;;;;5020659;28;20290;-84
2022/10/13 11:46:06;;;;;;;12.15;6.15;;;17.30;70.40;;;;;;5034991;28;20281;-84
2022/10/13 11:48:54;;;;;;;11.65;7.05;;;17.30;67.10;;;;;;5024534;28;20202;-84
2022/10/13 11:51:32;;;;;;;11.48;7.00;;;17.30;67.10;;;;;;5030577;28;20198;-84
2022/10/13 11:54:21;;;;;;;10.57;6.30;;;17.30;66.70;;;;;;5031536;28;20205;-84
2022/10/13 11:56:50;;;;;;;15.68;7.55;;;17.10;66.80;;;;;;5025384;28;20199;-84
2022/10/13 11:59:30;;;;;;;10.55;6.10;;;16.90;73.00;;;;;;5036936;28;20290;-87
2022/10/13 12:02:05;;;;;;;8.82;6.57;;;16.70;72.60;;;;;;5025503;28;20195;-86
2022/10/13 12:04:41;;;;;;;10.18;6.05;;;16.70;74.50;;;;;;5030441;28;20741;-87
2022/10/13 12:07:11;;;;;;;11.07;5.85;;;16.60;78.40;;;;;;5026925;28;20277;-87
2022/10/13 12:09:51;;;;;;;9.52;5.72;;;16.60;78.40;;;;;;5033513;28;20319;-86
2022/10/13 12:12:23;;;;;;;10.35;6.93;;;16.70;78.50;;;;;;5017371;28;20237;-91
2022/10/13 12:14:54;;;;;;;11.35;6.70;;;16.80;74.90;;;;;;5029493;28;20194;-86
2022/10/13 12:17:58;;;;;;;13.15;6.43;;;16.80;74.40;;;;;;5028798;28;20646;-86
2022/10/13 12:20:58;;;;;;;10.25;6.28;;;16.90;73.70;;;;;;5022363;28;20204;-85
2022/10/13 12:24:06;;;;;;;11.45;5.90;;;16.90;72.90;;;;;;5030607;28;20572;-86
2022/10/13 12:26:33;;;;;;;9.20;6.35;;;17.10;73.50;;;;;;5030464;28;20193;-86
2022/10/13 12:29:10;;;;;;;9.48;6.25;;;17.00;75.60;;;;;;5033370;28;20520;-85
2022/10/13 12:31:40;;;;;;;17.02;6.80;;;17.00;75.20;;;;;;5032255;28;20205;-86
2022/10/13 12:34:20;;;;;;;11.25;6.97;;;17.00;75.30;;;;;;5033360;28;20194;-85
2022/10/13 12:37:14;;;;;;;8.82;6.85;;;17.00;73.70;;;;;;5017606;28;20190;-86
2022/10/13 12:40:21;;;;;;;9.63;6.60;;;17.20;73.50;;;;;;5026570;28;20205;-85
2022/10/13 12:43:05;;;;;;;11.43;6.40;;;17.20;69.60;;;;;;5021566;28;20227;-85
2022/10/13 12:45:35;;;;;;;7.40;5.45;;;17.00;69.50;;;;;;5031953;28;20199;-86
2022/10/13 12:48:02;;;;;;;12.95;5.95;;;16.70;75.00;;;;;;5025376;28;20195;-85
2022/10/13 12:50:37;;;;;;;10.02;6.90;;;16.80;78.60;;;;;;5031639;28;20245;-85
2022/10/13 12:53:16;;;;;;;10.82;6.28;;;16.90;75.10;;;;;;5034523;28;20202;-85
2022/10/13 12:56:33;;;;;;;8.45;4.93;;;16.80;76.70;;;;;;5027266;28;20198;-85
2022/10/13 12:59:13;;;;;;;8.60;5.75;;;16.90;78.70;;;;;;5027957;28;20209;-86
2022/10/13 13:02:19;;;;;;;11.88;6.65;;;16.90;76.80;;;;;;5021601;28;20187;-85
2022/10/13 13:04:46;;;;;;;12.15;7.45;;;17.10;72.10;;;;;;5018071;28;20227;-86
2022/10/13 13:07:30;;;;;;;9.00;5.20;;;17.10;73.70;;;;;;5018455;28;20562;-86
2022/10/13 13:10:25;;;;;;;15.10;5.93;;;17.00;78.70;;;;;;5021785;28;20225;-86
2022/10/13 13:12:53;;;;;;;10.82;5.90;;;17.00;76.20;;;;;;4997359;28;20209;-86
2022/10/13 13:15:35;;;;;;;10.35;5.28;;;16.90;74.60;;;;;;5030539;28;20551;-86
2022/10/13 13:18:38;;;;;;;7.10;5.07;;;16.90;76.30;;;;;;5028484;28;20207;-86
2022/10/13 13:21:17;;;;;;;16.92;13.27;;;17.00;77.00;;;;;;5029776;28;20205;-87
2022/10/13 13:23:52;;;;;;;7.20;5.22;;;17.10;75.00;;;;;;5025614;28;20200;-86
2022/10/13 13:27:09;;;;;;;15.40;6.20;;;17.10;76.10;;;;;;5020427;28;20563;-86
2022/10/13 13:29:36;;;;;;;9.23;5.43;;;17.10;78.80;;;;;;5025508;28;20298;-86
2022/10/13 13:32:05;;;;;;;8.73;5.60;;;17.00;78.70;;;;;;5029616;28;20195;-86
2022/10/13 13:34:34;;;;;;;12.77;6.90;;;16.90;76.70;;;;;;5020981;28;20569;-85
2022/10/13 13:37:04;;;;;;;9.68;6.07;;;17.20;77.20;;;;;;5018238;28;20195;-85
2022/10/13 13:39:58;;;;;;;12.93;5.43;;;17.20;76.40;;;;;;5033946;28;20195;-85
2022/10/13 13:42:52;;;;;;;8.75;5.75;;;17.10;75.20;;;;;;5017990;28;20226;-86
2022/10/13 13:46:09;;;;;;;10.70;5.53;;;17.10;75.60;;;;;;5033493;28;20195;-85
2022/10/13 13:48:41;;;;;;;9.85;5.43;;;17.00;75.20;;;;;;5030312;28;20227;-85
2022/10/13 13:51:10;;;;;;;13.80;5.50;;;16.90;77.20;;;;;;5036146;28;20218;-85
2022/10/13 13:53:40;;;;;;;8.50;5.80;;;16.90;77.70;;;;;;5032307;28;20212;-85
2022/10/13 13:56:22;;;;;;;15.45;5.68;;;16.70;78.50;;;;;;5034964;28;20195;-86
2022/10/13 13:58:52;;;;;;;11.13;5.75;;;16.70;78.50;;;;;;5025545;28;20274;-86
2022/10/13 14:01:23;;;;;;;11.38;5.65;;;16.60;78.50;;;;;;5027086;28;20199;-87
2022/10/13 14:03:52;;;;;;;11.15;5.10;;;16.60;80.20;;;;;;5027453;28;20282;-86
2022/10/13 14:06:22;;;;;;;9.93;5.07;;;16.70;79.90;;;;;;5034254;28;20226;-86
2022/10/13 14:08:52;;;;;;;13.60;6.00;;;16.60;79.00;;;;;;5029965;28;20205;-86
2022/10/13 14:11:22;;;;;;;10.40;5.47;;;16.60;79.60;;;;;;5032198;28;20314;-85
2022/10/13 14:13:52;;;;;;;8.60;4.72;;;16.50;80.30;;;;;;5036279;28;20305;-87
2022/10/13 14:16:28;;;;;;;11.55;5.45;;;16.50;80.50;;;;;;5031468;28;20307;-86
2022/10/13 14:19:05;;;;;;;9.77;5.30;;;16.50;81.20;;;;;;5029640;28;20730;-86
2022/10/13 14:21:46;;;;;;;9.10;5.63;;;16.50;81.30;;;;;;5022833;28;20213;-86
2022/10/13 14:24:28;;;;;;;10.20;5.03;;;16.60;82.90;;;;;;5025166;28;20647;-86
2022/10/13 14:26:58;;;;;;;11.43;5.05;;;16.60;82.10;;;;;;5021574;28;20678;-86
2022/10/13 14:29:40;;;;;;;7.68;4.75;;;16.70;82.50;;;;;;5023516;28;20199;-86
2022/10/13 14:32:10;;;;;;;9.13;4.88;;;16.60;82.20;;;;;;5022264;28;20222;-86
2022/10/13 14:34:48;;;;;;;10.98;5.05;;;16.60;83.00;;;;;;5034691;28;20195;-86
2022/10/13 14:37:28;;;;;;;10.73;5.30;;;16.60;84.80;;;;;;5027925;28;20681;-87
2022/10/13 14:39:58;;;;;;;7.07;4.65;;;16.50;86.70;;;;;;5029693;28;20209;-86
2022/10/13 14:42:28;;;;;;;10.65;4.95;;;16.50;87.40;;;;;;5033328;28;20233;-86
2022/10/13 14:45:27;;;;;;;7.82;5.15;;;16.50;85.40;;;;;;5025764;28;20205;-87
2022/10/13 14:48:10;;;;;;;9.18;4.80;;;16.50;86.70;;;;;;5026346;28;20207;-86
2022/10/13 14:50:42;;;;;;;10.13;5.70;;;16.50;85.60;;;;;;5027046;28;20223;-86
2022/10/13 14:53:25;;;;;;;18.58;14.38;;;16.50;84.70;;;;;;5026060;28;20553;-90
2022/10/13 14:55:52;;;;;;;14.35;9.05;;;16.50;85.20;;;;;;5026770;28;20229;-86
2022/10/13 14:58:40;;;;;;;13.05;6.30;;;16.30;85.60;;;;;;5027011;28;20197;-87
2022/10/13 15:01:17;;;;;;;13.60;5.95;;;16.20;86.20;;;;;;5022065;28;20291;-86
2022/10/13 15:03:44;;;;;;;18.17;14.00;;;16.10;87.20;;;;;;5032271;28;20203;-86
2022/10/13 15:06:19;;;;;;;16.67;11.98;;;16.20;88.20;;;;;;5028158;28;20215;-87
2022/10/13 15:08:47;;;;;;;12.38;6.90;;;16.30;87.80;;;;;;5029617;28;20188;-90
2022/10/13 15:11:18;;;;;;;13.90;9.70;;;16.40;87.20;;;;;;5034388;28;21072;-87
2022/10/13 15:13:52;;;;;;;14.77;6.72;;;16.30;86.90;;;;;;5020837;28;20198;-85
2022/10/13 15:16:32;;;;;;;21.67;15.30;;;16.40;87.30;;;;;;5029694;28;20194;-86
2022/10/13 15:18:59;;;;;;;9.45;5.57;;;16.40;88.10;;;;;;5028405;28;20198;-86
2022/10/13 15:21:29;;;;;;;8.30;6.28;;;16.40;86.70;;;;;;5028396;28;20201;-86
2022/10/13 15:23:57;;;;;;;11.90;5.35;;;16.30;87.20;;;;;;5038348;28;20198;-86
2022/10/13 15:26:52;;;;;;;12.98;7.35;;;16.20;87.90;;;;;;5037111;28;20300;-89
2022/10/13 15:29:22;;;;;;;9.70;5.63;;;16.10;89.30;;;;;;5023923;28;20684;-86
2022/10/13 15:31:52;;;;;;;11.88;5.90;;;16.10;90.00;;;;;;5025294;28;20219;-85
2022/10/13 15:34:22;;;;;;;10.73;5.55;;;16.00;90.40;;;;;;5025183;28;20203;-87
2022/10/13 15:37:00;;;;;;;10.75;5.57;;;16.00;90.50;;;;;;5023398;28;20293;-86
2022/10/13 15:40:04;;;;;;;11.00;6.28;;;15.80;91.00;;;;;;5023640;28;20198;-87
2022/10/13 15:42:40;;;;;;;10.95;7.07;;;15.80;91.70;;;;;;5033134;28;20671;-90
2022/10/13 15:45:28;;;;;;;9.23;5.38;;;15.70;91.80;;;;;;5032579;28;20236;-87
2022/10/13 15:47:56;;;;;;;8.65;5.10;;;15.50;92.40;;;;;;5027647;28;20278;-86
2022/10/13 15:50:29;;;;;;;9.32;6.28;;;15.40;93.00;;;;;;5027296;28;20218;-86
2022/10/13 15:52:57;;;;;;;12.63;7.70;;;15.40;93.50;;;;;;5031218;28;20209;-86
2022/10/13 15:55:25;;;;;;;10.00;5.43;;;15.30;93.90;;;;;;5029986;28;20206;-87
2022/10/13 15:57:52;;;;;;;9.23;5.45;;;15.30;94.40;;;;;;5023780;28;20201;-86
2022/10/13 16:00:22;;;;;;;9.38;6.03;;;15.30;94.10;;;;;;5022389;28;20202;-87